Columbia Regional Airport Columbia US
ICAO: KCOU
IATA: COU
Category: Medium
Scheduled Services: Yes

Elevation: 889 ft
TransAlt. 18000 ft.

Airport Communications:
MIZZU APP/DEP:124.375
ATIS:128.45
CTAF:119.3
GND:121.6
RDO:122.2
TWR:119.3
UNICOM:122.95

KCOU Zoom In..

If you have problems with the map follow the link
https://www.worldairports.se/pages/airport.php?
ICAO=KCOU

Runways:

(A) RW 02 length 6501 ft width 150 ft
ILS 110.70 / hdg 18

(B) RW 13 length 4401 ft width 75 ft
---- / hdg 132

(C) RW 20 length 6501 ft width 150 ft
---- / hdg 198

(D) RW 31 length 4401 ft width 75 ft
---- / hdg 312

Location; KCOU
Day. 13 / Time. 12.54 Zulu
* Altimeter: 29.94
* Temperature: 02° c. 35.6°f.
* Wind from: 170° Speed 05 kn.
Dewpoint: -04° c.
Visibility: 10 Statute Miles.
Clouds: Overcast 6000 ft.

KCOU 131254Z 17005KT 10SM OVC060 02/M04 A2994 RMK AO2 SLP143 T00221044


Wind From 170°
Speed 05 kn.

 
 
jpsmedia worldairports.se 2019   terms of use